Time;durP1;ratioP1;P1;durP2;ratioP2;P2;SDS_P1;SDS_P2;PMS_P1;PMS_P2;Temp;Humidity;BMP_temperature;BMP_pressure;BME280_temperature;BME280_humidity;BME280_pressure;Samples;Min_cycle;Max_cycle;Signal;HPM_P1;HPM_P2
2021/03/09 00:00:27;;;;;;;15.30;5.25;;;;;;;24.06;33.63;100156.97;4484783;32;33792;-56
2021/03/09 00:02:55;;;;;;;15.43;5.62;;;;;;;24.06;33.69;100153.38;4484696;32;33833;-48
2021/03/09 00:05:22;;;;;;;21.67;6.03;;;;;;;24.06;33.74;100156.97;4484811;32;33671;-53
2021/03/09 00:07:49;;;;;;;14.90;5.53;;;;;;;24.04;33.89;100160.97;4485137;32;33033;-48
2021/03/09 00:10:16;;;;;;;15.93;5.45;;;;;;;24.03;33.90;100162.84;4484748;32;33789;-48
2021/03/09 00:12:43;;;;;;;12.18;5.00;;;;;;;24.02;33.89;100157.62;4484708;32;33786;-62
2021/03/09 00:15:11;;;;;;;12.70;4.90;;;;;;;24.01;33.91;100169.56;4484588;32;34080;-47
2021/03/09 00:17:38;;;;;;;12.07;5.25;;;;;;;23.99;33.88;100160.78;4484723;32;34674;-53
2021/03/09 00:20:06;;;;;;;18.17;5.53;;;;;;;23.99;33.94;100163.53;4484749;32;33572;-61
2021/03/09 00:22:33;;;;;;;17.35;4.65;;;;;;;23.98;33.98;100161.84;4484653;32;33857;-48
2021/03/09 00:25:00;;;;;;;15.90;5.43;;;;;;;23.98;33.96;100161.84;4484297;31;33774;-45
2021/03/09 00:27:31;;;;;;;16.35;5.20;;;;;;;23.97;34.07;100162.87;4484083;32;33430;-51
2021/03/09 00:29:58;;;;;;;11.90;5.72;;;;;;;23.97;34.18;100160.16;4484597;32;33559;-48
2021/03/09 00:32:25;;;;;;;11.80;5.47;;;;;;;23.95;34.23;100160.41;4484333;32;33903;-58
2021/03/09 00:34:53;;;;;;;15.35;5.60;;;;;;;23.94;34.19;100153.28;4484556;32;34764;-51
2021/03/09 00:37:19;;;;;;;15.52;5.20;;;;;;;23.93;34.20;100151.63;4484911;32;34138;-52
2021/03/09 00:39:47;;;;;;;16.10;5.12;;;;;;;23.93;34.22;100149.72;4484400;32;33807;-51
2021/03/09 00:42:14;;;;;;;10.05;5.25;;;;;;;23.92;34.21;100149.94;4484423;32;34716;-55
2021/03/09 00:44:41;;;;;;;12.95;4.80;;;;;;;23.91;34.23;100151.00;4484362;32;33965;-53
2021/03/09 00:47:27;;;;;;;11.43;5.05;;;;;;;23.89;34.28;100148.50;4484484;32;33275;-60
2021/03/09 00:49:54;;;;;;;16.45;5.30;;;;;;;23.88;34.31;100146.00;4484466;32;34024;-46
2021/03/09 00:52:22;;;;;;;12.75;5.78;;;;;;;23.87;34.34;100156.03;4484682;32;33803;-50
2021/03/09 00:54:49;;;;;;;15.80;5.87;;;;;;;23.86;34.48;100159.00;4484497;32;34506;-54
2021/03/09 00:57:16;;;;;;;15.93;5.22;;;;;;;23.86;34.77;100159.00;4484700;32;33404;-50
2021/03/09 00:59:43;;;;;;;11.35;5.45;;;;;;;23.85;34.77;100168.22;4484311;32;34604;-56
2021/03/09 01:02:10;;;;;;;15.25;6.28;;;;;;;23.85;34.83;100160.06;4484466;32;33824;-45
2021/03/09 01:04:37;;;;;;;10.85;4.62;;;;;;;23.84;34.79;100156.50;4484117;32;34028;-58
2021/03/09 01:07:05;;;;;;;13.80;5.30;;;;;;;23.82;34.78;100153.16;4484320;32;33717;-49
2021/03/09 01:09:32;;;;;;;16.60;5.37;;;;;;;23.81;34.76;100153.38;4484231;32;33778;-52
2021/03/09 01:11:59;;;;;;;14.82;5.47;;;;;;;23.81;34.84;100151.47;4484186;32;34959;-53
2021/03/09 01:14:27;;;;;;;17.25;5.05;;;;;;;23.80;34.80;100152.53;4484444;32;34914;-53
2021/03/09 01:16:54;;;;;;;20.50;5.82;;;;;;;23.79;34.86;100148.16;4484253;32;34081;-55
2021/03/09 01:19:21;;;;;;;16.98;5.47;;;;;;;23.79;34.93;100147.31;4484517;32;33752;-61
2021/03/09 01:21:48;;;;;;;12.05;5.28;;;;;;;23.79;34.87;100144.59;4483960;32;33923;-45
2021/03/09 01:24:15;;;;;;;14.95;5.40;;;;;;;23.77;34.83;100146.69;4484077;32;33817;-51
2021/03/09 01:26:42;;;;;;;13.88;5.37;;;;;;;23.77;34.81;100142.06;4484139;32;32367;-58
2021/03/09 01:29:09;;;;;;;17.17;5.25;;;;;;;23.76;34.81;100134.97;4484063;32;35315;-49
2021/03/09 01:31:36;;;;;;;12.52;5.03;;;;;;;23.75;34.80;100132.47;4483949;32;33976;-61
2021/03/09 01:34:04;;;;;;;18.12;4.68;;;;;;;23.73;34.82;100134.56;4484189;32;33756;-54
2021/03/09 01:36:32;;;;;;;13.35;5.32;;;;;;;23.71;34.85;100137.53;4484026;32;33448;-54
2021/03/09 01:38:59;;;;;;;12.20;5.72;;;;;;;23.71;34.99;100136.69;4483609;32;34590;-60
2021/03/09 01:41:26;;;;;;;14.35;4.85;;;;;;;23.71;34.95;100136.69;4484065;32;33814;-52
2021/03/09 01:43:54;;;;;;;12.90;5.30;;;;;;;23.71;34.95;100131.25;4484116;32;33852;-61
2021/03/09 01:46:21;;;;;;;14.55;4.95;;;;;;;23.69;34.93;100131.47;4484231;32;33317;-65
2021/03/09 01:48:48;;;;;;;13.85;5.22;;;;;;;23.68;34.86;100116.16;4469760;32;34769;-48
2021/03/09 01:51:19;;;;;;;13.00;5.35;;;;;;;23.68;34.88;100129.78;4469854;32;34790;-57
2021/03/09 01:53:46;;;;;;;10.45;4.55;;;;;;;23.67;34.89;100123.50;4484032;32;34706;-56
2021/03/09 01:56:13;;;;;;;21.85;6.35;;;;;;;23.66;34.91;100110.09;4469616;32;33526;-48
2021/03/09 01:58:42;;;;;;;19.42;5.43;;;;;;;23.67;35.02;100122.66;4457151;32;33752;-55
2021/03/09 02:01:09;;;;;;;19.52;5.57;;;;;;;23.66;35.08;100118.28;4469986;32;34942;-51
2021/03/09 02:03:37;;;;;;;14.70;5.47;;;;;;;23.65;35.05;100120.16;4469626;32;34541;-56
2021/03/09 02:06:05;;;;;;;14.43;4.97;;;;;;;23.64;35.05;100121.22;4484000;32;34021;-57
2021/03/09 02:08:32;;;;;;;14.57;5.30;;;;;;;23.64;35.03;100115.78;4483884;32;34601;-49
2021/03/09 02:10:59;;;;;;;12.43;4.40;;;;;;;23.63;35.04;100116.78;4466796;32;94642;-56
2021/03/09 02:13:35;;;;;;;20.52;4.75;;;;;;;23.62;35.07;100119.75;4469336;32;34428;-55
2021/03/09 02:16:09;;;;;;;13.35;5.05;;;;;;;23.62;35.08;100115.13;4483867;32;33247;-52
2021/03/09 02:19:09;;;;;;;10.98;4.62;;;;;;;23.60;35.07;100117.25;4483801;32;33693;-64
2021/03/09 02:21:41;;;;;;;12.10;5.72;;;;;;;23.62;35.01;100117.00;4469669;32;34781;-60
2021/03/09 02:24:40;;;;;;;11.48;4.97;;;;;;;23.59;35.07;100118.28;4469309;32;33760;-50
2021/03/09 02:27:41;;;;;;;13.98;5.20;;;;;;;23.59;35.03;100121.00;4456132;32;33273;-60
2021/03/09 02:30:21;;;;;;;15.40;4.70;;;;;;;23.59;35.04;100118.28;4473921;32;33821;-52
2021/03/09 02:32:56;;;;;;;15.65;4.57;;;;;;;23.56;35.09;100113.28;4457111;32;33814;-51
2021/03/09 02:35:25;;;;;;;15.82;5.57;;;;;;;23.54;35.12;100112.66;4470262;32;33934;-48
2021/03/09 02:37:53;;;;;;;12.23;4.57;;;;;;;23.55;35.14;100111.63;4469441;32;33983;-53
2021/03/09 02:40:20;;;;;;;11.95;4.78;;;;;;;23.54;35.11;100117.28;4469816;32;33868;-63
2021/03/09 02:42:50;;;;;;;13.48;4.82;;;;;;;23.53;35.09;100113.72;4468960;32;35084;-51
2021/03/09 02:45:18;;;;;;;12.87;4.97;;;;;;;23.52;35.11;100112.06;4483373;32;33952;-49
2021/03/09 02:47:45;;;;;;;13.82;4.68;;;;;;;23.53;35.10;100111.00;4456354;32;33491;-46
2021/03/09 02:50:13;;;;;;;10.32;4.57;;;;;;;23.51;35.11;100110.38;4482350;32;33758;-50
2021/03/09 02:52:41;;;;;;;13.13;4.47;;;;;;;23.50;35.11;100100.56;4469241;32;33870;-51
2021/03/09 02:55:10;;;;;;;12.18;4.45;;;;;;;23.49;35.14;100104.31;4469137;32;35313;-55
2021/03/09 02:57:39;;;;;;;11.88;4.57;;;;;;;23.50;35.13;100106.00;4456746;32;34193;-46
2021/03/09 03:00:07;;;;;;;14.48;4.37;;;;;;;23.50;35.15;100096.97;4469223;32;33557;-51
2021/03/09 03:02:36;;;;;;;12.00;4.80;;;;;;;23.48;35.22;100105.37;4483257;32;33976;-60
2021/03/09 03:05:05;;;;;;;13.68;4.85;;;;;;;23.48;35.30;100105.37;4468692;32;33592;-54
2021/03/09 03:07:33;;;;;;;12.67;4.47;;;;;;;23.48;35.36;100105.37;4456584;32;34268;-48
2021/03/09 03:10:00;;;;;;;13.75;4.32;;;;;;;23.49;35.36;100111.66;4456102;32;33903;-58
2021/03/09 03:12:31;;;;;;;13.57;4.53;;;;;;;23.48;35.35;100105.37;4456054;32;34780;-51
2021/03/09 03:14:59;;;;;;;14.00;4.45;;;;;;;23.45;35.37;100110.41;4456199;32;34542;-53
2021/03/09 03:17:27;;;;;;;14.25;4.32;;;;;;;23.46;35.32;100109.38;4456091;32;34124;-60
2021/03/09 03:19:54;;;;;;;8.93;4.00;;;;;;;23.45;35.30;100105.78;4468725;32;33509;-56
2021/03/09 03:22:21;;;;;;;13.85;4.97;;;;;;;23.44;35.33;100109.59;4452791;32;35395;-59
2021/03/09 03:24:48;;;;;;;14.07;4.32;;;;;;;23.43;35.37;100102.47;4440828;32;33785;-49
2021/03/09 03:27:16;;;;;;;12.50;4.50;;;;;;;23.42;35.33;100108.97;4453062;32;32989;-51
2021/03/09 03:29:44;;;;;;;13.40;4.47;;;;;;;23.42;35.33;100106.25;4467218;32;33775;-50
2021/03/09 03:32:13;;;;;;;11.88;4.85;;;;;;;23.42;35.39;100106.25;4467377;32;34817;-45
2021/03/09 03:34:41;;;;;;;11.45;4.40;;;;;;;23.42;35.42;100103.53;4465793;32;34048;-54
2021/03/09 03:37:08;;;;;;;11.43;4.03;;;;;;;23.41;35.41;100101.87;4467076;32;33443;-54
2021/03/09 03:39:35;;;;;;;13.23;4.72;;;;;;;23.40;35.44;100095.56;4468363;32;33858;-54
2021/03/09 03:42:03;;;;;;;10.38;4.80;;;;;;;23.41;35.43;100104.59;4482453;32;33914;-53
2021/03/09 03:44:30;;;;;;;7.95;3.87;;;;;;;23.40;35.44;100105.63;4468281;32;33486;-52
2021/03/09 03:46:57;;;;;;;13.18;4.65;;;;;;;23.38;35.43;100108.56;4483077;32;33969;-59
2021/03/09 03:49:24;;;;;;;12.02;4.62;;;;;;;23.38;35.46;100100.41;4482447;32;35250;-49
2021/03/09 03:51:54;;;;;;;9.65;4.12;;;;;;;23.38;35.55;100105.84;4468325;32;33612;-52
2021/03/09 03:54:45;;;;;;;11.55;4.40;;;;;;;23.37;35.55;100103.34;4455696;32;33480;-51
2021/03/09 03:57:20;;;;;;;11.68;4.45;;;;;;;23.38;35.47;100107.75;4454124;32;33301;-46
2021/03/09 03:59:50;;;;;;;12.15;4.70;;;;;;;23.36;35.47;100113.41;4452481;32;33512;-46
2021/03/09 04:02:17;;;;;;;12.73;4.53;;;;;;;23.35;35.49;100113.62;4454963;32;33827;-46
2021/03/09 04:04:46;;;;;;;10.65;3.70;;;;;;;23.35;35.48;100116.34;4442218;32;33935;-51
2021/03/09 04:07:13;;;;;;;8.55;4.18;;;;;;;23.34;35.43;100120.12;4442354;32;34084;-51
2021/03/09 04:09:41;;;;;;;16.62;3.92;;;;;;;23.34;35.39;100115.50;4455097;32;33896;-63
2021/03/09 04:12:09;;;;;;;10.30;4.40;;;;;;;23.34;35.60;100120.94;4460442;32;33650;-52
2021/03/09 04:14:36;;;;;;;9.48;3.90;;;;;;;23.33;35.60;100123.91;4457500;32;34524;-55
2021/03/09 04:17:03;;;;;;;8.15;4.00;;;;;;;23.33;35.65;100118.47;4470762;32;33076;-57
2021/03/09 04:19:31;;;;;;;10.35;4.20;;;;;;;23.33;35.61;100118.47;4470534;32;34607;-48
2021/03/09 04:21:58;;;;;;;11.65;4.78;;;;;;;23.31;35.64;100120.53;4457388;32;34034;-51
2021/03/09 04:24:26;;;;;;;10.48;4.30;;;;;;;23.31;35.62;100115.09;4470002;32;33933;-50
2021/03/09 04:26:53;;;;;;;9.18;3.78;;;;;;;23.31;35.58;100120.53;4470395;32;33517;-51
2021/03/09 04:29:20;;;;;;;15.10;4.03;;;;;;;23.31;35.61;100117.81;4454515;32;33674;-50
2021/03/09 04:31:47;;;;;;;10.68;4.35;;;;;;;23.30;35.65;100118.87;4454808;32;33931;-50
2021/03/09 04:34:17;;;;;;;13.55;4.72;;;;;;;23.28;35.72;100119.13;4455160;32;33454;-47
2021/03/09 04:36:44;;;;;;;9.40;4.15;;;;;;;23.29;35.69;100125.37;4468735;32;33074;-52
2021/03/09 04:39:11;;;;;;;10.48;4.03;;;;;;;23.28;35.67;100124.56;4454840;32;33764;-54
2021/03/09 04:41:38;;;;;;;10.95;4.22;;;;;;;23.27;35.63;100128.34;4441930;32;34728;-51
2021/03/09 04:44:05;;;;;;;14.90;4.30;;;;;;;23.27;35.64;100131.06;4468601;32;33777;-55
2021/03/09 04:46:32;;;;;;;9.30;3.70;;;;;;;23.27;35.71;100130.19;4462831;32;33431;-58
2021/03/09 04:49:00;;;;;;;10.18;3.90;;;;;;;23.27;35.75;100136.50;4457420;32;33199;-47
2021/03/09 04:51:27;;;;;;;9.38;3.70;;;;;;;23.26;35.72;100134.81;4457563;32;34690;-52
2021/03/09 04:53:54;;;;;;;13.00;4.03;;;;;;;23.26;35.71;100133.97;4484475;32;33783;-59
2021/03/09 04:56:21;;;;;;;12.23;4.82;;;;;;;23.24;35.67;100128.75;4457379;32;33616;-50
2021/03/09 04:58:48;;;;;;;8.63;4.15;;;;;;;23.25;35.68;100132.31;4484287;32;33929;-54
2021/03/09 05:01:15;;;;;;;20.70;4.32;;;;;;;23.24;35.68;100133.38;4484348;32;34005;-62
2021/03/09 05:03:43;;;;;;;10.02;3.78;;;;;;;23.24;35.67;100131.47;4484091;32;33735;-48
2021/03/09 05:06:10;;;;;;;22.10;4.85;;;;;;;23.23;35.68;100129.00;4484183;32;34789;-61
2021/03/09 05:08:37;;;;;;;11.68;4.25;;;;;;;23.23;35.69;100138.00;4484345;32;33758;-60
2021/03/09 05:11:04;;;;;;;10.00;4.22;;;;;;;23.22;35.67;100132.75;4484264;32;33889;-47
2021/03/09 05:13:31;;;;;;;9.88;4.40;;;;;;;23.22;35.70;100133.56;4469063;32;34657;-56
2021/03/09 05:15:58;;;;;;;15.52;4.20;;;;;;;23.21;35.67;100136.53;4484349;32;34396;-52
2021/03/09 05:18:26;;;;;;;15.35;3.95;;;;;;;23.21;35.80;100136.53;4484381;32;33973;-51
2021/03/09 05:20:53;;;;;;;9.98;4.53;;;;;;;23.21;35.79;100136.53;4484019;32;34810;-50
2021/03/09 05:23:20;;;;;;;8.38;3.65;;;;;;;23.21;35.81;100136.53;4484057;32;33787;-51
2021/03/09 05:25:47;;;;;;;14.27;4.15;;;;;;;23.20;35.71;100132.13;4484187;32;33082;-46
2021/03/09 05:28:14;;;;;;;14.73;4.35;;;;;;;23.20;35.71;100129.41;4484068;32;33575;-52
2021/03/09 05:30:41;;;;;;;13.60;4.10;;;;;;;23.20;35.71;100132.13;4484172;32;34619;-59
2021/03/09 05:33:08;;;;;;;8.93;3.87;;;;;;;23.19;35.73;100135.91;4484406;32;33833;-52
2021/03/09 05:35:36;;;;;;;10.07;4.12;;;;;;;23.17;35.70;100125.22;4469766;32;33084;-58
2021/03/09 05:38:03;;;;;;;10.55;3.60;;;;;;;23.16;35.67;100129.84;4481957;32;33914;-55
2021/03/09 05:40:30;;;;;;;8.18;3.70;;;;;;;23.17;35.70;100136.13;4482965;32;34772;-49
2021/03/09 05:42:57;;;;;;;15.70;4.00;;;;;;;23.15;35.74;100133.62;4464308;32;33721;-50
2021/03/09 05:45:24;;;;;;;8.15;3.78;;;;;;;23.15;35.75;100133.62;4493768;31;34141;-47
2021/03/09 05:47:52;;;;;;;8.40;3.85;;;;;;;23.15;35.72;100124.63;4499896;31;33799;-46
2021/03/09 05:50:19;;;;;;;10.10;3.65;;;;;;;23.15;35.74;100127.34;4484231;31;33859;-60
2021/03/09 05:52:46;;;;;;;9.05;3.53;;;;;;;23.14;35.72;100137.41;4484141;32;34472;-48
2021/03/09 05:55:13;;;;;;;9.13;3.60;;;;;;;23.14;35.71;100139.28;4483906;32;33153;-47
2021/03/09 05:57:41;;;;;;;9.27;3.92;;;;;;;23.13;35.79;100152.06;4483839;32;34877;-53
2021/03/09 06:00:09;;;;;;;12.55;4.62;;;;;;;23.12;35.77;100150.38;4483994;32;33890;-46
2021/03/09 06:02:38;;;;;;;9.48;3.67;;;;;;;23.11;35.80;100151.44;4468297;32;34127;-55
2021/03/09 06:05:06;;;;;;;12.13;4.03;;;;;;;23.13;35.75;100151.22;4468168;32;34440;-50
2021/03/09 06:07:35;;;;;;;9.13;3.58;;;;;;;23.11;35.75;100156.88;4468346;32;33892;-56
2021/03/09 06:10:03;;;;;;;7.30;3.47;;;;;;;23.09;35.70;100161.72;4468146;32;33889;-56
2021/03/09 06:12:30;;;;;;;8.65;3.22;;;;;;;23.11;35.69;100161.47;4482438;32;33804;-57
2021/03/09 06:15:02;;;;;;;9.68;3.80;;;;;;;23.10;35.73;100160.66;4483871;32;33409;-52
2021/03/09 06:17:34;;;;;;;11.30;3.80;;;;;;;23.09;35.69;100159.00;4483786;32;33641;-56
2021/03/09 06:20:22;;;;;;;7.62;3.58;;;;;;;23.09;35.71;100155.44;4484144;32;33926;-55
2021/03/09 06:22:58;;;;;;;8.70;3.62;;;;;;;23.08;35.71;100154.59;4483746;32;33748;-50
2021/03/09 06:25:32;;;;;;;12.45;3.65;;;;;;;23.09;35.68;100153.53;4484080;32;33322;-52
2021/03/09 06:28:03;;;;;;;9.43;3.75;;;;;;;23.07;35.73;100165.69;4483526;32;33868;-47
2021/03/09 06:30:38;;;;;;;13.70;4.03;;;;;;;23.08;35.69;100159.19;4483905;32;34730;-46
2021/03/09 06:33:05;;;;;;;13.88;3.45;;;;;;;23.08;35.83;100173.66;4483747;32;33783;-53
2021/03/09 06:35:40;;;;;;;13.85;4.57;;;;;;;23.05;35.83;100171.34;4483536;32;33368;-57
2021/03/09 06:38:30;;;;;;;9.02;3.75;;;;;;;23.08;35.79;100170.94;4483509;32;33760;-49
2021/03/09 06:41:10;;;;;;;10.43;3.72;;;;;;;23.08;35.65;100165.50;4483509;32;34130;-49
2021/03/09 06:43:39;;;;;;;13.90;3.62;;;;;;;23.09;35.66;100169.88;4483617;32;33726;-54
2021/03/09 06:46:10;;;;;;;16.80;3.97;;;;;;;23.06;35.64;100175.75;4483296;32;33201;-48
2021/03/09 06:48:38;;;;;;;10.25;3.42;;;;;;;23.07;35.52;100177.41;4483488;32;34777;-49
2021/03/09 06:51:06;;;;;;;9.88;3.75;;;;;;;23.06;35.49;100175.75;4483393;32;33872;-49
2021/03/09 06:53:33;;;;;;;11.52;3.62;;;;;;;23.06;35.57;100173.00;4483151;32;34044;-56
2021/03/09 06:56:01;;;;;;;16.05;3.95;;;;;;;23.06;35.59;100172.19;4483440;32;34273;-58
2021/03/09 06:58:30;;;;;;;9.93;3.35;;;;;;;23.05;35.66;100174.06;4456618;32;33841;-47
2021/03/09 07:01:13;;;;;;;21.70;4.30;;;;;;;23.04;35.66;100177.84;4480868;31;33643;-53
2021/03/09 07:03:41;;;;;;;14.32;3.87;;;;;;;23.06;35.69;100174.91;4481654;31;33909;-49
2021/03/09 07:06:09;;;;;;;16.77;4.32;;;;;;;23.03;35.67;100173.44;4481707;32;33133;-49
2021/03/09 07:08:36;;;;;;;15.95;4.22;;;;;;;23.03;35.72;100178.88;4462200;32;32982;-50
2021/03/09 07:11:03;;;;;;;14.68;3.37;;;;;;;23.02;35.75;100177.22;4479757;32;33612;-54
2021/03/09 07:13:30;;;;;;;16.25;3.85;;;;;;;23.04;35.75;100179.75;4482335;32;34862;-62
2021/03/09 07:15:57;;;;;;;10.32;4.03;;;;;;;23.02;35.78;100173.66;4482780;32;33361;-49
2021/03/09 07:18:26;;;;;;;11.32;3.78;;;;;;;23.02;35.87;100181.81;4443067;32;33845;-53
2021/03/09 07:20:56;;;;;;;11.93;4.18;;;;;;;23.02;35.65;100176.37;4482315;32;33814;-63
2021/03/09 07:23:24;;;;;;;14.82;3.95;;;;;;;23.04;35.55;100183.28;4482940;32;35047;-49
2021/03/09 07:25:55;;;;;;;16.50;4.10;;;;;;;23.04;35.56;100179.75;4483032;32;33913;-66
2021/03/09 07:28:23;;;;;;;9.80;3.75;;;;;;;23.02;35.60;100177.22;4482812;32;34851;-64
2021/03/09 07:30:57;;;;;;;16.62;4.05;;;;;;;23.02;35.55;100179.09;4482520;32;34944;-55
2021/03/09 07:33:30;;;;;;;28.75;7.53;;;;;;;23.02;35.53;100179.94;4482788;32;33831;-65
2021/03/09 07:35:57;;;;;;;26.08;7.15;;;;;;;23.08;27.11;100170.94;4470203;32;33080;-70
2021/03/09 07:38:24;;;;;;;20.27;6.53;;;;;;;22.92;27.16;100174.94;4457941;32;34413;-71
2021/03/09 07:40:52;;;;;;;20.95;6.90;;;;;;;22.84;28.61;100172.41;4484581;32;34527;-56
2021/03/09 07:43:19;;;;;;;19.35;6.35;;;;;;;22.78;29.55;100167.84;4470002;32;33866;-64
2021/03/09 07:45:46;;;;;;;25.70;6.07;;;;;;;22.73;30.85;100175.81;4464552;32;33681;-59
2021/03/09 07:48:20;;;;;;;15.77;5.87;;;;;;;22.73;31.13;100170.38;4466054;32;32862;-52
2021/03/09 07:50:47;;;;;;;15.00;5.35;;;;;;;22.75;31.22;100181.03;4484696;32;33863;-56
2021/03/09 07:53:14;;;;;;;22.70;6.87;;;;;;;22.72;31.32;100178.75;4484872;32;33714;-62
2021/03/09 07:55:41;;;;;;;22.45;6.47;;;;;;;22.71;31.46;100177.06;4469335;32;33310;-58
2021/03/09 07:58:17;;;;;;;18.02;5.57;;;;;;;22.71;31.65;100180.63;4469228;32;33851;-53
2021/03/09 08:01:00;;;;;;;17.48;6.10;;;;;;;22.72;31.99;100182.31;4469071;32;33950;-58
2021/03/09 08:03:27;;;;;;;21.40;6.53;;;;;;;22.74;31.93;100188.34;4469028;32;34516;-51
2021/03/09 08:06:03;;;;;;;17.98;5.68;;;;;;;22.71;32.06;100187.94;4471467;32;33306;-51
2021/03/09 08:08:52;;;;;;;19.95;5.37;;;;;;;22.72;32.07;100185.03;4484707;32;33742;-49
2021/03/09 08:11:19;;;;;;;19.42;6.62;;;;;;;22.76;32.21;100180.84;4484664;32;34829;-55
2021/03/09 08:13:46;;;;;;;18.55;5.57;;;;;;;22.75;32.40;100181.03;4484585;32;33574;-59
2021/03/09 08:16:19;;;;;;;18.58;5.22;;;;;;;22.75;32.59;100184.56;4470580;32;33292;-55
2021/03/09 08:18:50;;;;;;;21.77;5.65;;;;;;;22.77;32.62;100178.94;4478962;32;34625;-58
2021/03/09 08:21:17;;;;;;;17.67;5.35;;;;;;;22.76;32.58;100172.66;4490547;31;33559;-53
2021/03/09 08:23:45;;;;;;;15.82;5.25;;;;;;;22.76;32.65;100180.00;4483940;31;35235;-48
2021/03/09 08:26:15;;;;;;;19.80;5.45;;;;;;;22.77;32.87;100184.38;4500125;31;33310;-61
2021/03/09 08:28:52;;;;;;;17.48;5.43;;;;;;;22.78;32.88;100183.34;4500172;31;34651;-53
2021/03/09 08:31:20;;;;;;;22.05;5.07;;;;;;;22.77;32.81;100171.63;4500386;31;33836;-56
2021/03/09 08:33:53;;;;;;;19.42;6.82;;;;;;;22.78;32.92;100180.59;4481428;31;33699;-70
2021/03/09 08:36:21;;;;;;;19.52;5.43;;;;;;;22.79;32.84;100182.28;4489967;31;33566;-66
2021/03/09 08:39:12;;;;;;;19.70;5.62;;;;;;;22.79;32.88;100174.12;4472526;32;33595;-70
2021/03/09 08:41:42;;;;;;;15.32;5.15;;;;;;;22.78;32.92;100173.28;4482742;32;34172;-62
2021/03/09 08:44:16;;;;;;;20.42;5.12;;;;;;;22.77;32.92;100168.06;4499414;31;33822;-52
2021/03/09 08:47:00;;;;;;;17.98;4.57;;;;;;;22.76;32.94;100163.69;4493059;31;33338;-68
2021/03/09 08:49:33;;;;;;;16.40;4.70;;;;;;;22.78;33.03;100167.84;4469963;32;33541;-68
2021/03/09 08:52:04;;;;;;;12.85;4.68;;;;;;;22.77;32.96;100171.63;4484620;32;33563;-65
2021/03/09 08:54:45;;;;;;;20.12;5.35;;;;;;;22.77;33.17;100158.00;4482891;32;33761;-61
2021/03/09 08:57:20;;;;;;;17.42;5.18;;;;;;;22.77;33.19;100154.47;4487999;31;34241;-51
2021/03/09 08:59:48;;;;;;;20.27;5.32;;;;;;;22.77;33.29;100151.75;4499336;31;33807;-63
2021/03/09 09:02:23;;;;;;;18.02;5.75;;;;;;;22.78;33.47;100154.25;4484297;32;33709;-68
2021/03/09 09:04:58;;;;;;;16.33;5.60;;;;;;;22.79;33.39;100158.63;4484653;31;33852;-70
2021/03/09 09:07:29;;;;;;;16.05;4.80;;;;;;;22.81;33.55;100153.00;4496799;31;33307;-70
2021/03/09 09:10:02;;;;;;;13.25;4.53;;;;;;;22.81;33.58;100158.44;4482550;32;34079;-70
2021/03/09 09:12:31;;;;;;;18.62;5.57;;;;;;;22.78;33.69;100151.50;4470287;31;33673;-70
2021/03/09 09:15:05;;;;;;;17.62;5.30;;;;;;;22.81;33.77;100158.44;4496406;31;34638;-68
2021/03/09 09:17:32;;;;;;;16.08;4.78;;;;;;;22.80;33.84;100148.56;4484266;32;34086;-70
2021/03/09 09:20:00;;;;;;;13.45;5.07;;;;;;;22.81;33.88;100155.72;4483951;32;34595;-68
2021/03/09 09:22:28;;;;;;;18.10;5.20;;;;;;;22.81;33.97;100150.25;4484196;32;34910;-69
2021/03/09 09:24:59;;;;;;;19.60;4.40;;;;;;;22.83;33.97;100156.31;4483582;32;34011;-66
2021/03/09 09:27:26;;;;;;;12.95;4.40;;;;;;;22.82;34.02;100150.03;4484136;32;33260;-69
2021/03/09 09:29:54;;;;;;;11.15;4.25;;;;;;;22.85;33.97;100155.06;4482805;32;34799;-70
2021/03/09 09:32:22;;;;;;;16.45;5.32;;;;;;;22.84;34.04;100147.94;4484121;32;33804;-69
2021/03/09 09:34:59;;;;;;;16.00;4.82;;;;;;;22.85;34.05;100140.62;4483458;32;33844;-70
2021/03/09 09:37:26;;;;;;;14.75;5.22;;;;;;;22.86;34.08;100137.69;4483547;32;33267;-67
2021/03/09 09:39:54;;;;;;;14.50;4.25;;;;;;;22.86;34.06;100139.56;4483756;32;33887;-68
2021/03/09 09:42:21;;;;;;;11.20;4.53;;;;;;;22.86;34.12;100143.13;4456760;32;33684;-68
2021/03/09 09:44:48;;;;;;;14.50;4.60;;;;;;;22.87;34.11;100138.53;4469506;32;33718;-70
2021/03/09 09:47:15;;;;;;;12.82;4.85;;;;;;;22.86;34.12;100131.41;4456921;32;33040;-71
2021/03/09 09:49:43;;;;;;;16.08;4.50;;;;;;;22.86;34.13;100129.53;4457230;32;33493;-69
2021/03/09 09:52:15;;;;;;;13.48;4.45;;;;;;;22.86;34.12;100128.69;4469635;32;34742;-62
2021/03/09 09:54:54;;;;;;;15.68;5.15;;;;;;;22.84;34.09;100126.16;4483462;32;34568;-70
2021/03/09 09:57:23;;;;;;;20.50;5.28;;;;;;;22.88;34.04;100129.31;4483534;32;34142;-71
2021/03/09 09:59:50;;;;;;;18.70;4.55;;;;;;;22.87;34.04;100124.91;4482990;32;34364;-73
2021/03/09 10:02:23;;;;;;;14.05;4.65;;;;;;;22.88;34.04;100118.41;4484139;32;33938;-71
2021/03/09 10:04:51;;;;;;;17.20;4.43;;;;;;;22.89;34.15;100115.50;4483774;32;33764;-74
2021/03/09 10:07:22;;;;;;;22.10;5.18;;;;;;;22.94;34.24;100123.03;4484189;32;33368;-72
2021/03/09 10:10:01;;;;;;;16.92;4.35;;;;;;;22.98;34.26;100116.09;4483037;32;33834;-71
2021/03/09 10:13:21;;;;;;;17.85;4.37;;;;;;;23.09;34.18;100114.59;4482283;32;34385;-69
2021/03/09 10:15:48;;;;;;;19.55;5.30;;;;;;;23.26;34.06;100102.13;4483359;32;33937;-74
2021/03/09 10:18:29;;;;;;;13.73;3.85;;;;;;;23.40;33.93;100105.63;4478933;32;33494;-73
2021/03/09 10:21:16;;;;;;;13.15;5.00;;;;;;;23.58;33.80;100111.16;4476741;32;33780;-72
2021/03/09 10:23:57;;;;;;;18.58;4.30;;;;;;;23.80;33.61;100108.13;4483685;32;33900;-72
2021/03/09 10:26:26;;;;;;;13.68;4.55;;;;;;;23.95;33.45;100105.06;4483376;32;33484;-71
2021/03/09 10:29:03;;;;;;;15.10;4.60;;;;;;;24.07;33.31;100106.84;4483707;32;34151;-70
2021/03/09 10:31:49;;;;;;;13.32;4.40;;;;;;;24.26;33.10;100098.69;4483440;32;33996;-70
2021/03/09 10:34:21;;;;;;;13.35;4.10;;;;;;;24.43;32.93;100088.88;4483603;32;33521;-71
2021/03/09 10:36:52;;;;;;;12.00;3.90;;;;;;;24.55;32.78;100088.97;4483266;32;33799;-72
2021/03/09 10:39:21;;;;;;;13.62;4.40;;;;;;;24.70;32.72;100081.25;4483256;32;35013;-71
2021/03/09 10:41:48;;;;;;;10.27;3.47;;;;;;;24.83;32.57;100082.97;4469030;32;34898;-72
2021/03/09 10:44:31;;;;;;;15.25;3.80;;;;;;;24.94;32.46;100077.56;4482979;32;33837;-72
2021/03/09 10:47:00;;;;;;;15.45;4.32;;;;;;;25.11;32.31;100074.25;4483509;32;34718;-71
2021/03/09 10:49:28;;;;;;;10.48;3.65;;;;;;;25.20;32.19;100081.06;4483283;32;34136;-71
2021/03/09 10:52:00;;;;;;;15.38;4.30;;;;;;;25.30;32.11;100072.28;4468790;32;33738;-69
2021/03/09 10:54:27;;;;;;;17.58;4.07;;;;;;;25.41;31.89;100068.75;4483166;32;33868;-70
2021/03/09 10:56:56;;;;;;;15.70;3.97;;;;;;;25.51;31.76;100074.50;4469023;32;33411;-69
2021/03/09 10:59:24;;;;;;;17.85;4.50;;;;;;;25.62;31.64;100059.19;4483330;32;33081;-72
2021/03/09 11:01:52;;;;;;;15.35;4.20;;;;;;;25.70;31.57;100067.06;4483216;32;33541;-66
2021/03/09 11:04:19;;;;;;;10.85;3.37;;;;;;;25.78;31.52;100065.91;4443576;32;34301;-71
2021/03/09 11:06:46;;;;;;;15.77;3.87;;;;;;;25.87;31.43;100059.84;4482075;32;33976;-73
2021/03/09 11:09:13;;;;;;;14.50;3.92;;;;;;;25.97;31.39;100069.38;4483109;32;34019;-70
2021/03/09 11:11:40;;;;;;;11.05;3.83;;;;;;;26.04;31.32;100068.19;4484723;32;33520;-70
2021/03/09 11:14:07;;;;;;;14.70;4.18;;;;;;;26.09;31.32;100056.53;4484956;32;33572;-71
2021/03/09 11:16:35;;;;;;;13.73;3.60;;;;;;;26.13;31.33;100053.09;4485015;32;34730;-69
2021/03/09 11:19:02;;;;;;;17.60;4.37;;;;;;;26.16;31.34;100047.16;4484425;32;33187;-70
2021/03/09 11:21:29;;;;;;;23.10;3.75;;;;;;;26.17;31.37;100037.88;4485028;32;33746;-72
2021/03/09 11:23:58;;;;;;;11.85;3.92;;;;;;;26.18;31.38;100044.16;4485184;31;34306;-71
2021/03/09 11:26:25;;;;;;;16.80;4.35;;;;;;;26.17;31.44;100034.31;4484963;32;33704;-62
2021/03/09 11:28:52;;;;;;;13.07;3.80;;;;;;;26.16;31.44;100040.81;4485190;32;33309;-61
2021/03/09 11:31:20;;;;;;;13.98;4.45;;;;;;;26.14;31.54;100032.03;4484511;32;34858;-72